Home > Products > Valid Products > TAF

000
FTUS45 KPIH 292320
TAFBYI
TAF
KBYI 292320Z 3000/3024 07008KT P6SM SCT250
     FM300300 11005KT P6SM SCT250
     FM301900 27008KT P6SM BKN250=



000
FTUS45 KPIH 292320
TAFPIH
TAF
KPIH 292320Z 3000/3024 28007KT P6SM SCT060 SCT250
     FM300300 VRB05KT P6SM SCT250
     FM302000 24012KT P6SM BKN250=



000
FTUS45 KPIH 292320
TAFIDA
TAF
KIDA 292320Z 3000/3024 22007KT P6SM SCT060 SCT250
     FM300300 VRB05KT P6SM SCT250
     FM302000 22012KT P6SM BKN250=



000
FTUS45 KPIH 292320
TAFSUN
TAF
KSUN 292320Z 3000/3024 15007KT P6SM SCT070 SCT250
     FM300300 30007KT P6SM SCT250
     FM301700 15008KT P6SM FEW100 BKN200
      AMD LTD TO CLD VIS AND WIND 3005/3013=



000
FTUS45 KPIH 292320
TAFBYI
TAF
KBYI 292320Z 3000/3024 07008KT P6SM SCT250
     FM300300 11005KT P6SM SCT250
     FM301900 27008KT P6SM BKN250=



000
FTUS45 KPIH 291724
TAFSUN
TAF
KSUN 291724Z 2918/3018 31008KT P6SM SCT060
     FM291900 15007KT P6SM SCT050 SCT100
     FM300100 30004KT P6SM FEW100
     FM300900 31009KT P6SM SCT100 SCT200=



000
FTUS45 KPIH 291724
TAFIDA
TAF
KIDA 291724Z 2918/3018 01006KT P6SM FEW070
     FM292100 22007KT P6SM SCT060 SCT120
     FM300300 VRB05KT P6SM SKC=



000
FTUS45 KPIH 291724
TAFBYI
TAF
KBYI 291724Z 2918/3018 07008KT P6SM SCT070
     FM300300 16005KT P6SM SKC=



000
FTUS45 KPIH 291724
TAFPIH
TAF
KPIH 291724Z 2918/3018 07005KT P6SM FEW070
     FM292100 28007KT P6SM SCT060 SCT120
     FM300300 VRB05KT P6SM SKC=



000
FTUS45 KPIH 291120
TAFPIH
TAF
KPIH 291120Z 2912/3012 07005KT P6SM FEW070
     FM292100 28007KT P6SM SCT060 SCT120
     FM300300 VRB05KT P6SM SKC=



000
FTUS45 KPIH 291120
TAFIDA
TAF
KIDA 291120Z 2912/3012 01006KT P6SM FEW070
     FM292100 22007KT P6SM SCT060 SCT120
     FM300300 VRB05KT P6SM SKC=



000
FTUS45 KPIH 291120
TAFSUN
TAF
KSUN 291120Z 2912/3012 31008KT P6SM SCT060
     FM291900 15007KT P6SM SCT050 SCT100
     FM300100 30004KT P6SM FEW100
     FM300900 31009KT P6SM SCT100 SCT200=



000
FTUS45 KPIH 291120
TAFSUN
TAF
KSUN 291120Z 2912/3012 31008KT P6SM SCT060
     FM291900 15007KT P6SM SCT050 SCT100
     FM300100 30004KT P6SM FEW100
     FM300900 31009KT P6SM SCT100 SCT200=



000
FTUS45 KPIH 291120
TAFBYI
TAF
KBYI 291120Z 2912/3012 07008KT P6SM SCT070
     FM300300 16005KT P6SM SKC=



000
FTUS45 KPIH 291120
TAFPIH
TAF
KPIH 291120Z 2912/3012 07005KT P6SM FEW070
     FM292100 28007KT P6SM SCT060 SCT120
     FM300300 VRB05KT P6SM SKC=



000
FTUS45 KPIH 291120
TAFIDA
TAF
KIDA 291120Z 2912/3012 01006KT P6SM FEW070
     FM292100 22007KT P6SM SCT060 SCT120
     FM300300 VRB05KT P6SM SKC=



000
FTUS45 KPIH 291120
TAFBYI
TAF
KBYI 291120Z 2912/3012 07008KT P6SM SCT070
     FM300300 16005KT P6SM SKC=



000
FTUS45 KPIH 290520
TAFIDA
TAF
KIDA 290520Z 2906/3006 01005KT P6SM SCT120 BKN250
     FM291900 22006KT P6SM FEW120 SCT250=



000
FTUS45 KPIH 290520
TAFPIH
TAF
KPIH 290520Z 2906/3006 VRB05KT P6SM SCT120 BKN250
     FM291900 26006KT P6SM FEW120 SCT250=



000
FTUS45 KPIH 290520
TAFBYI
TAF
KBYI 290520Z 2906/3006 VRB06KT P6SM VCTS BKN080CB BKN200
     FM291000 07006KT P6SM SCT100 BKN250
     FM291800 08005KT P6SM SCT250=



000
FTUS45 KPIH 290520
TAFIDA
TAF
KIDA 290520Z 2906/3006 01005KT P6SM SCT120 BKN250
     FM291900 22006KT P6SM FEW120 SCT250=



000
FTUS45 KPIH 290520
TAFPIH
TAF
KPIH 290520Z 2906/3006 VRB05KT P6SM SCT120 BKN250
     FM291900 26006KT P6SM FEW120 SCT250=



000
FTUS45 KPIH 290520
TAFSUN
TAF
KSUN 290520Z 2906/3006 15010KT P6SM VCTS BKN060CB BKN120
     FM290900 30007KT P6SM SCT100 BKN250
     FM291900 15007KT P6SM FEW080 SCT250
     FM300400 31008KT P6SM FEW250=



000
FTUS45 KPIH 290520
TAFSUN
TAF
KSUN 290520Z 2906/3006 15010KT P6SM VCTS BKN060CB BKN120
     FM290900 30007KT P6SM SCT100 BKN250
     FM291900 15007KT P6SM FEW080 SCT250
     FM300400 31008KT P6SM FEW250=



000
FTUS45 KPIH 290520
TAFBYI
TAF
KBYI 290520Z 2906/3006 VRB06KT P6SM VCTS BKN080CB BKN200
     FM291000 07006KT P6SM SCT100 BKN250
     FM291800 08005KT P6SM SCT250=



000
FTUS45 KPIH 290423 AAA
TAFSUN
TAF AMD
KSUN 290423Z 2904/2924 15010KT P6SM VCTS BKN060CB BKN120
     FM290700 30007KT P6SM SCT100 BKN250
     FM291700 16007KT P6SM FEW100 SCT250=



000
FTUS45 KPIH 290147 AAA
TAFBYI
TAF AMD
KBYI 290147Z 2902/2924 27010KT P6SM VCTS SCT050CB BKN100
     FM290500 23005KT P6SM SCT150
     FM291800 08005KT P6SM SCT250=



000
FTUS45 KPIH 290147 AAA
TAFBYI
TAF AMD
KBYI 290147Z 2902/2924 27010KT P6SM VCTS SCT050CB BKN100
     FM290500 23005KT P6SM SCT150
     FM291800 08005KT P6SM SCT250=



000
FTUS45 KPIH 290039 AAA
TAFPIH
TAF AMD
KPIH 290039Z 2901/2924 31007KT P6SM -TSRA BKN040CB BKN080
     FM290200 31007KT P6SM VCTS SCT050CB BKN100
     FM290400 VRB05KT P6SM SCT070 SCT120
     FM291900 26009KT P6SM FEW120 SCT250=



000
FTUS45 KPIH 282320
TAFPIH
TAF
KPIH 282320Z 2900/2924 31007KT P6SM VCTS SCT050CB BKN100
     FM290400 VRB05KT P6SM SCT070 SCT120
     FM291900 26009KT P6SM FEW120 SCT250=



000
FTUS45 KPIH 282320
TAFIDA
TAF
KIDA 282320Z 2900/2924 VRB06KT P6SM VCTS SCT050CB BKN100
     FM290500 36006KT P6SM SCT050 SCT120
     FM291900 22008KT P6SM FEW120 SCT250=



000
FTUS45 KPIH 282320
TAFIDA
TAF
KIDA 282320Z 2900/2924 VRB06KT P6SM VCTS SCT050CB BKN100
     FM290500 36006KT P6SM SCT050 SCT120
     FM291900 22008KT P6SM FEW120 SCT250=



000
FTUS45 KPIH 282320
TAFPIH
TAF
KPIH 282320Z 2900/2924 31007KT P6SM VCTS SCT050CB BKN100
     FM290400 VRB05KT P6SM SCT070 SCT120
     FM291900 26009KT P6SM FEW120 SCT250=



000
FTUS45 KPIH 282320
TAFBYI
TAF
KBYI 282320Z 2900/2924 27010KT P6SM FEW070 SCT250
     FM290400 23005KT P6SM SCT150
     FM291800 08005KT P6SM SCT250=



000
FTUS45 KPIH 282320
TAFBYI
TAF
KBYI 282320Z 2900/2924 27010KT P6SM FEW070 SCT250
     FM290400 23005KT P6SM SCT150
     FM291800 08005KT P6SM SCT250=



000
FTUS45 KPIH 282320
TAFSUN
TAF
KSUN 282320Z 2900/2924 15010KT P6SM VCTS BKN060CB BKN120
     FM290400 30007KT P6SM SCT100 BKN250
     FM291700 16007KT P6SM FEW100 SCT250=



000
FTUS45 KPIH 282320
TAFSUN
TAF
KSUN 282320Z 2900/2924 15010KT P6SM VCTS BKN060CB BKN120
     FM290400 30007KT P6SM SCT100 BKN250
     FM291700 16007KT P6SM FEW100 SCT250=



000
FTUS45 KPIH 282206 AAB
TAFPIH
TAF AMD
KPIH 282206Z 2822/2918 33007KT P6SM VCTS SCT050CB BKN120
     FM290400 VRB05KT P6SM SCT070 SCT120=



000
FTUS45 KPIH 282126 AAA
TAFPIH
TAF AMD
KPIH 282126Z 2821/2918 31007KT P6SM -TSRA SCT035CB BKN050 BKN120
     FM282300 27010KT P6SM VCTS SCT045CB BKN080
     FM290400 VRB05KT P6SM SCT070 SCT120=



000
FTUS45 KPIH 282126 AAA
TAFPIH
TAF AMD
KPIH 282126Z 2821/2918 31007KT P6SM -TSRA SCT035CB BKN050 BKN120
     FM282300 27010KT P6SM VCTS SCT045CB BKN080
     FM290400 VRB05KT P6SM SCT070 SCT120=



000
FTUS45 KPIH 281724
TAFBYI
TAF
KBYI 281724Z 2818/2918 VRB06KT P6SM SCT070
     FM282000 27010KT P6SM VCTS SCT045CB SCT080
     FM290400 23005KT P6SM SCT070 SCT120=



000
FTUS45 KPIH 281724
TAFIDA
TAF
KIDA 281724Z 2818/2918 20007KT P6SM VCSH FEW020 BKN045 BKN150
     FM282000 22009KT P6SM -SHRA VCTS SCT040CB BKN080
     FM290500 VRB05KT P6SM SCT050 SCT100=



000
FTUS45 KPIH 281724
TAFSUN
TAF
KSUN 281724Z 2818/2918 16007KT P6SM VCSH SCT050 BKN080
     FM282100 20010KT P6SM -SHRA VCTS BKN045CB BKN080
     FM290400 30007KT P6SM SCT050 SCT100=



000
FTUS45 KPIH 281724
TAFPIH
TAF
KPIH 281724Z 2818/2918 24007KT P6SM VCSH SCT025 SCT080 BKN120
      TEMPO 2818/2820 BKN025
     FM282000 27010KT P6SM VCTS SCT045CB BKN080
     FM290400 VRB05KT P6SM SCT070 SCT120=



000
FTUS45 KPIH 281532 AAB
TAFIDA
TAF AMD
KIDA 281532Z 2816/2912 01008KT P6SM VCTS BKN012 BKN045CB BKN120
     FM281700 20007KT P6SM VCTS SCT012 BKN045CB BKN150
     FM282000 22009KT P6SM VCTS SCT040CB BKN080
     FM290500 VRB05KT P6SM SCT050 SCT100=



000
FTUS45 KPIH 281532 AAB
TAFIDA
TAF AMD
KIDA 281532Z 2816/2912 01008KT P6SM VCTS BKN012 BKN045CB BKN120
     FM281700 20007KT P6SM VCTS SCT012 BKN045CB BKN150
     FM282000 22009KT P6SM VCTS SCT040CB BKN080
     FM290500 VRB05KT P6SM SCT050 SCT100=



000
FTUS45 KPIH 281221 AAB
TAFPIH
TAF AMD
KPIH 281221Z 2812/2912 VRB05KT P6SM BKN070
     FM281700 24007KT P6SM VCSH SCT050 SCT080 BKN120
     FM282000 28010KT P6SM VCTS SCT045CB BKN080
     FM290400 VRB05KT P6SM SCT070 SCT120=



000
FTUS45 KPIH 281221 AAB
TAFPIH
TAF AMD
KPIH 281221Z 2812/2912 VRB05KT P6SM BKN070
     FM281700 24007KT P6SM VCSH SCT050 SCT080 BKN120
     FM282000 28010KT P6SM VCTS SCT045CB BKN080
     FM290400 VRB05KT P6SM SCT070 SCT120=



000
FTUS45 KPIH 281220 AAA
TAFIDA
TAF AMD
KIDA 281220Z 2812/2912 VRB05KT P6SM VCTS BKN045CB BKN120
     FM282000 22009KT P6SM VCTS SCT040CB BKN080
     FM290500 VRB05KT P6SM SCT050 SCT100=



000
FTUS45 KPIH 281220 AAA
TAFIDA
TAF AMD
KIDA 281220Z 2812/2912 VRB05KT P6SM VCTS BKN045CB BKN120
     FM282000 22009KT P6SM VCTS SCT040CB BKN080
     FM290500 VRB05KT P6SM SCT050 SCT100=



000
FTUS45 KPIH 281120
TAFSUN
TAF
KSUN 281120Z 2812/2912 32008KT P6SM SCT060
     FM281800 16007KT P6SM VCSH SCT050 BKN080
     FM282100 20010KT P6SM -SHRA VCTS BKN045CB BKN080
     FM290400 30007KT P6SM SCT050 SCT100=



000
FTUS45 KPIH 281120
TAFBYI
TAF
KBYI 281120Z 2812/2912 VRB06KT P6SM SCT070
     FM282000 27010KT P6SM VCTS SCT045CB SCT080
     FM290400 23005KT P6SM SCT070 SCT120=



000
FTUS45 KPIH 281120
TAFPIH
TAF
KPIH 281120Z 2812/2912 VRB05KT P6SM SCT060
     FM281700 24007KT P6SM VCSH SCT050 SCT080 BKN120
     FM282000 28010KT P6SM VCTS SCT045CB BKN080
     FM290400 VRB05KT P6SM SCT070 SCT120=



000
FTUS45 KPIH 281120
TAFPIH
TAF
KPIH 281120Z 2812/2912 VRB05KT P6SM SCT060
     FM281700 24007KT P6SM VCSH SCT050 SCT080 BKN120
     FM282000 28010KT P6SM VCTS SCT045CB BKN080
     FM290400 VRB05KT P6SM SCT070 SCT120=



000
FTUS45 KPIH 281120
TAFIDA
TAF
KIDA 281120Z 2812/2912 VRB05KT P6SM VCSH BKN045 BKN120
     FM281600 21006KT P6SM VCSH SCT045 BKN080 OVC120
     FM282000 22009KT P6SM VCTS SCT040CB BKN080
     FM290500 VRB05KT P6SM SCT050 SCT100=



000
FTUS45 KPIH 281120
TAFSUN
TAF
KSUN 281120Z 2812/2912 32008KT P6SM SCT060
     FM281800 16007KT P6SM VCSH SCT050 BKN080
     FM282100 20010KT P6SM -SHRA VCTS BKN045CB BKN080
     FM290400 30007KT P6SM SCT050 SCT100=



000
FTUS45 KPIH 281120
TAFIDA
TAF
KIDA 281120Z 2812/2912 VRB05KT P6SM VCSH BKN045 BKN120
     FM281600 21006KT P6SM VCSH SCT045 BKN080 OVC120
     FM282000 22009KT P6SM VCTS SCT040CB BKN080
     FM290500 VRB05KT P6SM SCT050 SCT100=



000
FTUS45 KPIH 281120
TAFBYI
TAF
KBYI 281120Z 2812/2912 VRB06KT P6SM SCT070
     FM282000 27010KT P6SM VCTS SCT045CB SCT080
     FM290400 23005KT P6SM SCT070 SCT120=



000
FTUS45 KPIH 280520
TAFSUN
TAF
KSUN 280520Z 2806/2906 32007KT P6SM FEW090
     FM281000 31010KT P6SM FEW040 SCT120
     FM281800 16007KT P6SM VCTS BKN050CB BKN180
     FM282100 25010KT P6SM -SHRA VCTS BKN060CB BKN200
     FM290200 30010KT P6SM VCTS SCT090CB SCT200=



000
FTUS45 KPIH 280520
TAFBYI
TAF
KBYI 280520Z 2806/2906 21010KT P6SM VCSH SCT060 BKN100 BKN160
     FM280900 19007KT P6SM -SHRA BKN080 BKN160
     FM281200 27007KT P6SM VCSH BKN070 BKN160
     FM281800 27010KT P6SM VCTS FEW040CB SCT200=



000
FTUS45 KPIH 280520
TAFPIH
TAF
KPIH 280520Z 2806/2906 17008KT P6SM FEW035 SCT080 SCT200
     FM280900 18008KT P6SM VCSH BKN100
     FM281500 26008KT P6SM VCSH SCT035 BKN080 BKN140
     FM282000 28008KT P6SM VCTS SCT060CB SCT110
     FM290200 10007KT P6SM VCTS BKN070CB BKN120=



000
FTUS45 KPIH 280520
TAFIDA
TAF
KIDA 280520Z 2806/2906 17007KT P6SM -SHRA BKN070 BKN200
     FM280900 17007KT P6SM SCT060 SCT100 BKN200
     FM281200 18008KT P6SM SCT025 BKN070 BKN100
     FM281500 23008KT P6SM -SHRA SCT025 BKN080 OVC140
     FM281800 21007KT P6SM VCTS SCT050CB SCT120=



000
FTUS45 KPIH 280353 AAB
TAFPIH
TAF AMD
KPIH 280353Z 2804/2824 17008KT P6SM -SHRA VCTS BKN050CB BKN140
     FM280900 18008KT P6SM -SHRA BKN080 BKN120
     FM281700 25008KT P6SM VCTS SCT035CB SCT110 BKN200=



000
FTUS45 KPIH 280303 AAA
TAFIDA
TAF AMD
KIDA 280303Z 2803/2824 02007KT P6SM VCSH BKN070 BKN200
      TEMPO 2803/2805 VRB15G30KT P6SM -SHRA OVC060
     FM280600 18007KT P6SM VCSH BKN080 BKN200
     FM281500 23007KT P6SM -SHRA SCT025 BKN100
     FM281800 26007KT P6SM VCTS SCT025CB BKN060 BKN100=



000
FTUS45 KPIH 280150 AAA
TAFBYI
TAF AMD
KBYI 280150Z 2802/2824 28010KT P6SM -SHRA SCT040 BKN060 BKN200
     FM280600 21010KT P6SM VCSH SCT040 BKN090 BKN200
     FM280900 19007KT P6SM -SHRA BKN060 BKN200
     FM281800 27010KT P6SM VCTS SCT040CB SCT140 BKN200=



000
FTUS45 KPIH 280056 CCA
TAFPIH
TAF COR
KPIH 280056Z 2801/2824 17008KT P6SM -SHRA VCTS BKN050CB BKN140
      TEMPO 2801/2802 VRB15G30KT P6SM -TSRA OVC050CB
     FM280200 18010KT P6SM VCSH SCT060 SCT160
     FM280900 18008KT P6SM -SHRA BKN080 BKN120
     FM281700 25008KT P6SM VCTS SCT035CB SCT110 BKN200=



000
FTUS45 KPIH 280055 AAA
TAFPIH
TAF AMD
KPIH 280055Z 2801/2824 17008KT P6SM -SHRA VCTS BKN050CB BKN140
     FM280200 18010KT P6SM VCSH SCT060 SCT160
     FM280900 18008KT P6SM -SHRA BKN080 BKN120
     FM281700 25008KT P6SM VCTS SCT035CB SCT110 BKN200=



000
FTUS45 KPIH 272320
TAFIDA
TAF
KIDA 272320Z 2800/2824 23010KT P6SM -SHRA VCTS BKN040CB BKN200
     FM280200 02007KT P6SM VCTS BKN070CB BKN200
     FM280600 18007KT P6SM VCSH BKN080 BKN200
     FM281500 23007KT P6SM -SHRA SCT025 BKN100
     FM281800 26007KT P6SM VCTS SCT025CB BKN060 BKN100=



000
FTUS45 KPIH 272320
TAFPIH
TAF
KPIH 272320Z 2800/2824 17008KT P6SM -SHRA VCTS BKN050CB BKN140
     FM280100 18010KT P6SM VCSH SCT060 SCT160
     FM280900 18008KT P6SM -SHRA BKN080 BKN120
     FM281700 25008KT P6SM VCTS SCT035CB SCT110 BKN200=



000
FTUS45 KPIH 272320
TAFPIH
TAF
KPIH 272320Z 2800/2824 17008KT P6SM -SHRA VCTS BKN050CB BKN140
     FM280100 18010KT P6SM VCSH SCT060 SCT160
     FM280900 18008KT P6SM -SHRA BKN080 BKN120
     FM281700 25008KT P6SM VCTS SCT035CB SCT110 BKN200=



000
FTUS45 KPIH 272320
TAFSUN
TAF
KSUN 272320Z 2800/2824 25008KT P6SM VCTS BKN060CB BKN200
     FM280300 32007KT P6SM SCT060 BKN120
     FM280800 32007KT P6SM FEW100 FEW200
     FM281600 VRB05KT P6SM VCTS FEW050CB SCT200
     FM282100 28010KT P6SM -SHRA VCTS BKN060CB BKN200=



000
FTUS45 KPIH 272320
TAFIDA
TAF
KIDA 272320Z 2800/2824 23010KT P6SM -SHRA VCTS BKN040CB BKN200
     FM280200 02007KT P6SM VCTS BKN070CB BKN200
     FM280600 18007KT P6SM VCSH BKN080 BKN200
     FM281500 23007KT P6SM -SHRA SCT025 BKN100
     FM281800 26007KT P6SM VCTS SCT025CB BKN060 BKN100=



000
FTUS45 KPIH 272320
TAFBYI
TAF
KBYI 272320Z 2800/2824 28010KT P6SM -SHRA VCTS SCT040CB BKN060
      BKN200
     FM280100 22010KT P6SM VCSH FEW040 SCT090 SCT200
     FM280600 21010KT P6SM VCSH SCT040 BKN090 BKN200
     FM280900 19007KT P6SM -SHRA BKN060 BKN200
     FM281800 27010KT P6SM VCTS SCT040CB SCT140 BKN200=



000
FTUS45 KPIH 272320
TAFBYI
TAF
KBYI 272320Z 2800/2824 28010KT P6SM -SHRA VCTS SCT040CB BKN060
      BKN200
     FM280100 22010KT P6SM VCSH FEW040 SCT090 SCT200
     FM280600 21010KT P6SM VCSH SCT040 BKN090 BKN200
     FM280900 19007KT P6SM -SHRA BKN060 BKN200
     FM281800 27010KT P6SM VCTS SCT040CB SCT140 BKN200=



000
FTUS45 KPIH 272320
TAFSUN
TAF
KSUN 272320Z 2800/2824 25008KT P6SM VCTS BKN060CB BKN200
     FM280300 32007KT P6SM SCT060 BKN120
     FM280800 32007KT P6SM FEW100 FEW200
     FM281600 VRB05KT P6SM VCTS FEW050CB SCT200
     FM282100 28010KT P6SM -SHRA VCTS BKN060CB BKN200=



000
FTUS45 KPIH 272230 AAC
TAFPIH
TAF AMD
KPIH 272230Z 2723/2818 17008KT P6SM -SHRA VCTS BKN050CB BKN140
      TEMPO 2723/2724 VRB15G25KT P6SM -TSRA OVC050CB
     FM280100 18010KT P6SM VCSH SCT060 SCT160
     FM280900 18008KT P6SM -SHRA BKN080 BKN120
     FM281700 25008KT P6SM VCTS SCT035CB SCT110 BKN200=



000
FTUS45 KPIH 272230 AAC
TAFPIH
TAF AMD
KPIH 272230Z 2723/2818 17008KT P6SM -SHRA VCTS BKN050CB BKN140
      TEMPO 2723/2724 VRB15G25KT P6SM -TSRA OVC050CB
     FM280100 18010KT P6SM VCSH SCT060 SCT160
     FM280900 18008KT P6SM -SHRA BKN080 BKN120
     FM281700 25008KT P6SM VCTS SCT035CB SCT110 BKN200=



000
FTUS45 KPIH 272113 AAB
TAFIDA
TAF AMD
KIDA 272113Z 2721/2818 21011KT P6SM -SHRA VCTS SCT050 BKN080CB
      TEMPO 2721/2722 VRB15G25KT P6SM -TSRA SCT020 BKN050CB
     FM280400 21007KT P6SM VCSH SCT080 BKN120=



000
FTUS45 KPIH 272035 AAA
TAFSUN
TAF AMD
KSUN 272035Z 2721/2818 16008KT P6SM -SHRA VCTS SCT040 BKN060CB
      TEMPO 2721/2723 -TSRA BKN040CB
     FM280400 31008KT P6SM VCSH SCT090 BKN150=



000
FTUS45 KPIH 271846 AAA
TAFIDA
TAF AMD
KIDA 271846Z 2719/2818 21011KT P6SM -SHRA VCTS SCT050 BKN080CB
      TEMPO 2719/2722 P6SM -TSRA SCT020 BKN050CB
     FM280400 21007KT P6SM VCSH SCT080 BKN120=



000
FTUS45 KPIH 271846 AAB
TAFPIH
TAF AMD
KPIH 271846Z 2719/2818 24010KT P6SM -SHRA VCTS SCT050CB BKN080CB
      TEMPO 2719/2722 P6SM -TSRA SCT020 BKN050CB
     FM280300 21009KT P6SM VCSH SCT080 BKN120=



000
FTUS45 KPIH 271720
TAFPIH
TAF
KPIH 271720Z 2718/2818 VRB06KT P6SM VCTS SCT040 BKN080CB
     FM271900 24010KT P6SM -SHRA VCTS SCT060CB BKN080CB
     FM280300 21009KT P6SM VCSH SCT080 BKN120=



000
FTUS45 KPIH 271720
TAFSUN
TAF
KSUN 271720Z 2718/2818 16008KT P6SM -SHRA VCTS SCT040 BKN060CB
     FM280400 31008KT P6SM VCSH SCT090 BKN150=



000
FTUS45 KPIH 271720
TAFPIH
TAF
KPIH 271720Z 2718/2818 VRB06KT P6SM VCTS SCT040 BKN080CB
     FM271900 24010KT P6SM -SHRA VCTS SCT060CB BKN080CB
     FM280300 21009KT P6SM VCSH SCT080 BKN120=



000
FTUS45 KPIH 271720
TAFIDA
TAF
KIDA 271720Z 2718/2818 VRB05KT P6SM VCTS SCT040 BKN060CB
     FM271900 21011KT P6SM -SHRA VCTS SCT060 BKN080CB
     FM280400 21007KT P6SM VCSH SCT080 BKN120=



000
FTUS45 KPIH 271720
TAFBYI
TAF
KBYI 271720Z 2718/2818 30009KT P6SM -SHRA VCTS SCT060 BKN080CB
     FM280300 22007KT P6SM VCSH SCT080 BKN120=



000
FTUS45 KPIH 271720
TAFSUN
TAF
KSUN 271720Z 2718/2818 16008KT P6SM -SHRA VCTS SCT040 BKN060CB
     FM280400 31008KT P6SM VCSH SCT090 BKN150=



000
FTUS45 KPIH 271720
TAFIDA
TAF
KIDA 271720Z 2718/2818 VRB05KT P6SM VCTS SCT040 BKN060CB
     FM271900 21011KT P6SM -SHRA VCTS SCT060 BKN080CB
     FM280400 21007KT P6SM VCSH SCT080 BKN120=



000
FTUS45 KPIH 271720
TAFBYI
TAF
KBYI 271720Z 2718/2818 30009KT P6SM -SHRA VCTS SCT060 BKN080CB
     FM280300 22007KT P6SM VCSH SCT080 BKN120=



000
FTUS45 KPIH 271611 AAB
TAFSUN
TAF AMD
KSUN 271611Z 2716/2812 VRB06KT P6SM -SHRA VCTS SCT060 BKN100CB
      TEMPO 2716/2717 -TSRA SCT040 BKN060CB
     FM271800 16008KT P6SM -SHRA VCTS OVC060CB
     FM280400 31008KT P6SM BKN150=



000
FTUS45 KPIH 271611 AAB
TAFSUN
TAF AMD
KSUN 271611Z 2716/2812 VRB06KT P6SM -SHRA VCTS SCT060 BKN100CB
      TEMPO 2716/2717 -TSRA SCT040 BKN060CB
     FM271800 16008KT P6SM -SHRA VCTS OVC060CB
     FM280400 31008KT P6SM BKN150=



000
FTUS45 KPIH 271506 AAA
TAFSUN
TAF AMD
KSUN 271506Z 2715/2812 VRB06KT P6SM -SHRA VCTS SCT060 BKN100CB
     FM271800 16008KT P6SM -SHRA VCTS OVC060CB
     FM280400 31008KT P6SM BKN150=



000
FTUS45 KPIH 271419 AAA
TAFIDA
TAF AMD
KIDA 271419Z 2714/2812 VRB05KT P6SM FEW040 BKN050
      TEMPO 2714/2715 P6SM -SHRA SCT040 BKN070
     FM271900 21011KT P6SM -SHRA VCTS BKN070CB OVC090
     FM280400 21007KT P6SM VCSH OVC070=



000
FTUS45 KPIH 271344 AAA
TAFPIH
TAF AMD
KPIH 271344Z 2714/2812 VRB06KT P6SM SCT070 BKN100
      TEMPO 2714/2715 P6SM -SHRA SCT050 BKN070
     FM271900 24010KT P6SM -SHRA VCTS BKN080CB OVC100
     FM280300 21009KT P6SM VCSH BKN080=



000
FTUS45 KPIH 271132
TAFSUN
TAF
KSUN 271132Z 2712/2812 32009KT P6SM VCSH SCT080 BKN120
     FM271800 16008KT P6SM -SHRA VCTS OVC060CB
     FM280400 31008KT P6SM BKN150
      AMD LTD TO CLD VIS AND WIND TIL 271300=



000
FTUS45 KPIH 271132
TAFIDA
TAF
KIDA 271132Z 2712/2812 VRB05KT P6SM FEW030 BKN050
      TEMPO 2713/2715 3SM BR
     FM271900 21011KT P6SM -SHRA VCTS BKN070CB OVC090
     FM280400 21007KT P6SM VCSH OVC070=



000
FTUS45 KPIH 271132
TAFPIH
TAF
KPIH 271132Z 2712/2812 VRB06KT P6SM SCT070 BKN100
     FM271900 24010KT P6SM -SHRA VCTS BKN080CB OVC100
     FM280300 21009KT P6SM VCSH BKN080=



000
FTUS45 KPIH 271132
TAFBYI
TAF
KBYI 271132Z 2712/2812 VRB06KT P6SM VCSH SCT070 OVC090
     FM271700 30009KT P6SM -SHRA VCTS OVC070CB
     FM280300 22007KT P6SM SCT100=



000
FTUS45 KPIH 270520
TAFSUN
TAF
KSUN 270520Z 2706/2806 32010KT P6SM SCT060 BKN120
     FM270900 32009KT P6SM VCSH SCT080 BKN120
     FM271800 16008KT P6SM -SHRA VCTS OVC060CB
     FM280400 31008KT P6SM BKN150
      AMD LTD TO CLD VIS AND WIND TIL 271300=



000
FTUS45 KPIH 270520
TAFPIH
TAF
KPIH 270520Z 2706/2806 04011KT P6SM BKN050 OVC100
     FM271000 VRB06KT P6SM VCSH SCT070 BKN100
     FM271800 26010KT P6SM -SHRA VCTS BKN080CB OVC100
     FM280400 21010KT P6SM VCSH BKN080=



000
FTUS45 KPIH 270520
TAFIDA
TAF
KIDA 270520Z 2706/2806 VRB06KT P6SM -SHRA OVC040
     FM270700 20008KT P6SM VCSH SCT080 OVC100
     FM271300 VRB05KT P6SM VCSH SCT070 BKN100
     FM271800 21011KT P6SM -SHRA VCTS BKN070CB OVC090
     FM280400 21008KT P6SM VCSH OVC070=



000
FTUS45 KPIH 270520
TAFBYI
TAF
KBYI 270520Z 2706/2806 20007KT P6SM BKN100
     FM270900 VRB06KT P6SM VCSH SCT070 OVC090
     FM271700 30009KT P6SM -SHRA VCTS OVC070CB
     FM280300 22007KT P6SM SCT100=



000
FTUS45 KPIH 270402 AAB
TAFPIH
TAF AMD
KPIH 270402Z 2704/2724 02011KT P6SM VCSH OVC040
     FM270600 03009KT P6SM BKN060 BKN100
     FM271000 VRB06KT P6SM VCSH SCT070 BKN100
     FM271800 26010KT P6SM VCTS BKN080CB BKN120=



    US Dept of Commerce
    National Oceanic and Atmospheric Administration
    National Weather Service
    1325 East West Highway
    Silver Spring, MD 20910
    Page Author: NWS Internet Services Team
Disclaimer
Information Quality
Credits
Glossary
Privacy Policy
Freedom of Information Act (FOIA)
About Us
Career Opportunities